FW3692 Weather Reports


Display with metric or nautical units.
time (UTC)temp
F
wind
direction
speed
MPH
gust
MPH
rain 1hr
in
rain 24hr
in
rain mn
in
humidity
%
barometer
mb
20210802181204 102 327 2.0 8.0 0.00 0.00 0.00 33 1009.5
20210802180207 102 314 0.0 6.0 0.00 0.00 0.00 33 1009.7
20210802171704 99 356 3.0 9.0 0.00 0.00 0.00 36 1010.2
20210802170704 99 8 1.0 7.0 0.00 0.00 0.00 36 1010.2
20210802170207 99 10 0.0 3.0 0.00 0.00 0.00 39 1010.2
20210802163704 98 7 0.0 7.0 0.00 0.00 0.00 40 1010.1
20210802163206 97 10 3.0 7.0 0.00 0.00 0.00 40 1010.1
20210802160704 96 60 0.0 1.0 0.00 0.00 0.00 43 1010.4
20210802154706 95 60 0.0 0.0 0.00 0.00 0.00 42 1010.6
20210802150704 92 52 0.0 1.0 0.00 0.00 0.00 46 1010.4
20210802150205 92 53 0.0 0.0 0.00 0.00 0.00 47 1010.4
20210802143206 85 44 0.0 0.0 0.00 0.00 0.00 59 1010.4
20210802141706 82 53 0.0 0.0 0.00 0.00 0.00 62 1010.4
20210802140704 81 47 0.0 0.0 0.00 0.00 0.00 65 1010.2
20210802134706 81 53 0.0 0.0 0.00 0.00 0.00 68 1010.2
20210802134206 80 51 0.0 0.0 0.00 0.00 0.00 67 1010.1
20210802131203 80 52 0.0 0.0 0.00 0.00 0.00 64 1009.8
20210802130704 80 53 0.0 0.0 0.00 0.00 0.00 63 1009.7
20210802130206 81 47 0.0 0.0 0.00 0.00 0.00 63 1009.7
20210802124706 81 48 0.0 0.0 0.00 0.00 0.00 62 1009.4
20210802124205 81 53 0.0 0.0 0.00 0.00 0.00 61 1009.4
20210802121204 83 52 0.0 0.0 0.00 0.00 0.00 57 1009.0
20210802120208 83 50 0.0 0.0 0.00 0.00 0.00 57 1008.9
20210802114205 84 52 0.0 0.0 0.00 0.00 0.00 56 1008.7
20210802113706 84 50 0.0 0.0 0.00 0.00 0.00 54 1008.8
20210802111706 85 53 0.0 0.0 0.00 0.00 0.00 51 1008.6
20210802111204 86 51 0.0 0.0 0.00 0.00 0.00 51 1008.8
20210802110704 86 51 0.0 0.0 0.00 0.00 0.00 51 1008.6
20210802110206 86 51 0.0 2.0 0.00 0.00 0.00 50 1008.6
20210802104706 87 52 0.0 0.0 0.00 0.00 0.00 49 1008.5
20210802103706 88 51 0.0 1.0 0.00 0.00 0.00 48 1008.5
20210802094707 88 52 0.0 1.0 0.00 0.00 0.00 49 1008.2
20210802094204 89 51 0.0 2.0 0.00 0.00 0.00 48 1008.1
20210802093704 88 51 0.0 3.0 0.00 0.00 0.00 47 1008.1
20210802093206 88 51 0.0 3.0 0.00 0.00 0.00 47 1008.1
20210802091706 87 51 0.0 1.0 0.00 0.00 0.00 49 1008.1
20210802091204 87 51 0.0 0.0 0.00 0.00 0.00 51 1008.1
20210802083705 87 48 0.0 1.0 0.00 0.00 0.00 50 1008.1
20210802081703 88 51 0.0 2.0 0.00 0.00 0.00 49 1008.1
20210802074703 90 51 0.0 0.0 0.00 0.00 0.00 46 1008.2
20210802074203 91 52 0.0 0.0 0.00 0.00 0.00 45 1008.2
20210802073704 91 51 0.0 0.0 0.00 0.00 0.00 44 1008.3
20210802070703 92 52 0.0 3.0 0.00 0.00 0.00 41 1008.0
20210802070206 92 53 1.0 3.0 0.00 0.00 0.00 41 1008.0
20210802063704 91 52 1.0 3.0 0.00 0.00 0.00 42 1007.9
20210802063206 91 52 0.0 1.0 0.00 0.00 0.00 42 1007.9
20210802061706 92 50 0.0 1.0 0.00 0.00 0.00 42 1007.7
20210802061204 92 51 0.0 1.0 0.00 0.00 0.00 43 1007.7
20210802060704 92 52 0.0 1.0 0.00 0.00 0.00 44 1007.8
20210802054707 91 49 0.0 1.0 0.00 0.00 0.00 44 1007.7
20210802051706 94 50 0.0 0.0 0.00 0.00 0.00 41 1007.4
20210802051204 94 51 0.0 0.0 0.00 0.00 0.00 41 1007.4
20210802050206 93 48 0.0 0.0 0.00 0.00 0.00 40 1007.4
20210802043206 91 52 0.0 0.0 0.00 0.00 0.00 44 1007.2
20210802041705 92 53 0.0 0.0 0.00 0.00 0.00 43 1007.0
20210802041203 92 51 0.0 0.0 0.00 0.00 0.00 42 1006.9
20210802040703 93 51 0.0 0.0 0.00 0.00 0.00 42 1006.9
20210802040205 93 52 0.0 0.0 0.00 0.00 0.00 41 1006.9
20210802031705 97 50 0.0 0.0 0.00 0.00 0.00 37 1006.4
20210802031204 98 52 0.0 0.0 0.00 0.00 0.00 36 1006.4
20210802030206 98 50 0.0 0.0 0.00 0.00 0.00 34 1006.4
20210802024705 99 51 0.0 3.0 0.00 0.00 0.00 33 1006.2
20210802024205 100 51 0.0 3.0 0.00 0.00 0.00 32 1006.3
20210802021704 100 52 1.0 3.0 0.00 0.00 0.00 32 1006.0
20210802021203 100 53 2.0 3.0 0.00 0.00 0.00 33 1006.0
20210802020702 100 51 1.0 3.0 0.00 0.00 0.00 32 1005.8
20210802013704 102 52 1.0 6.0 0.00 0.00 0.00 33 1002.5
20210802010703 102 59 4.0 9.0 0.00 0.00 0.00 32 1005.8
20210802010205 102 74 0.0 7.0 0.00 0.00 0.00 33 1005.8
20210802004203 102 65 0.0 9.0 0.00 0.00 0.00 33 1005.9
20210802001202 102 48 0.0 9.0 0.00 0.00 0.00 32 1006.2
20210801233207 105 50 5.0 12.0 0.00 0.00 0.00 30 1006.4
20210801231705 105 81 1.0 12.0 0.00 0.00 0.00 31 1006.6
20210801231202 106 86 3.0 12.0 0.00 0.00 0.00 30 1006.7
20210801230703 106 48 2.0 12.0 0.00 0.00 0.00 29 1006.8
20210801224702 105 95 3.0 10.0 0.00 0.00 0.00 32 1007.1
20210801224203 105 67 1.0 9.0 0.00 0.00 0.00 32 1007.1
20210801223703 104 35 2.0 10.0 0.00 0.00 0.00 33 1007.2
20210801223205 104 21 4.0 10.0 0.00 0.00 0.00 31 1007.2
20210801221704 104 51 5.0 13.0 0.00 0.00 0.00 31 1007.4
20210801221202 104 50 0.0 13.0 0.00 0.00 0.00 32 1007.5
20210801220207 104 64 5.0 10.0 0.00 0.00 0.00 32 1007.5
20210801214705 103 27 5.0 10.0 0.00 0.00 0.00 32 1007.7
20210801213206 102 17 2.0 12.0 0.00 0.00 0.00 35 1007.9
20210801211705 102 36 1.0 12.0 0.00 0.01 0.00 34 1008.1
20210801211203 103 28 6.0 12.0 0.00 0.01 0.00 33 1008.2
20210801210703 103 17 1.0 9.0 0.00 0.01 0.00 34 1008.2
20210801210207 103 11 0.0 9.0 0.00 0.01 0.00 34 1008.2
20210801204203 100 359 2.0 9.0 0.00 0.01 0.00 36 1008.5
20210801203703 100 356 1.0 6.0 0.00 0.01 0.00 36 1008.6
20210801201705 100 337 3.0 9.0 0.00 0.01 0.00 35 1008.8
20210801200703 101 277 4.0 9.0 0.00 0.01 0.00 34 1009.0
20210801200206 101 232 4.0 9.0 0.00 0.01 0.00 34 1009.0
20210801193703 100 234 1.0 5.0 0.00 0.01 0.00 36 1009.5
20210801193204 100 235 0.0 7.0 0.00 0.01 0.00 38 1009.5
20210801191703 99 235 0.0 3.0 0.00 0.01 0.00 39 1009.8
20210801190206 98 229 0.0 5.0 0.00 0.01 0.00 40 1009.8
20210801183702 98 251 1.0 3.0 0.00 0.01 0.00 41 1010.1
20210801183204 98 237 0.0 3.0 0.00 0.01 0.00 40 1010.1